Time;durP1;ratioP1;P1;durP2;ratioP2;P2;SDS_P1;SDS_P2;PMS_P1;PMS_P2;Temp;Humidity;BMP_temperature;BMP_pressure;BME280_temperature;BME280_humidity;BME280_pressure;Samples;Min_cycle;Max_cycle;Signal;HPM_P1;HPM_P2
2023/08/11 00:00:08;;;;;;;7.50;4.10;;;;;;;9.43;100.00;96546.75;7402344;19;20417;-92
2023/08/11 00:02:38;;;;;;;5.60;3.77;;;;;;;9.00;100.00;96448.41;7398827;19;20828;-93
2023/08/11 00:05:08;;;;;;;3.77;3.50;;;;;;;9.48;100.00;96538.69;7402787;19;20388;-92
2023/08/11 00:07:35;;;;;;;4.40;3.87;;;;;;;9.85;100.00;96610.34;7398517;19;20369;-93
2023/08/11 00:10:07;;;;;;;4.70;4.00;;;;;;;10.09;100.00;96662.66;7403214;19;20384;-91
2023/08/11 00:12:35;;;;;;;9.67;3.63;;;;;;;8.94;100.00;96500.53;7402924;19;20408;-92
2023/08/11 00:15:22;;;;;;;5.53;4.30;;;;;;;9.42;100.00;96574.22;7399425;19;20373;-92
2023/08/11 00:17:52;;;;;;;4.77;4.03;;;;;;;9.97;100.00;96658.00;7396644;19;20381;-92
2023/08/11 00:20:20;;;;;;;4.17;3.80;;;;;;;9.85;100.00;96651.81;7397897;19;20397;-92
2023/08/11 00:22:47;;;;;;;8.00;4.30;;;;;;;9.27;100.00;96558.09;7399004;19;20432;-91
2023/08/11 00:25:14;;;;;;;6.57;4.73;;;;;;;8.43;100.00;96422.25;7399437;19;20372;-92
2023/08/11 00:27:42;;;;;;;5.03;4.63;;;;;;;8.85;100.00;96507.69;7397128;19;20452;-92
2023/08/11 00:30:10;;;;;;;4.50;4.13;;;;;;;10.27;100.00;96717.03;7399294;19;20404;-89
2023/08/11 00:32:38;;;;;;;11.83;6.07;;;;;;;9.55;100.00;96608.69;7393296;19;20399;-90
2023/08/11 00:35:06;;;;;;;4.73;4.13;;;;;;;9.55;100.00;96632.44;7394739;19;20377;-90
2023/08/11 00:37:33;;;;;;;6.00;4.57;;;;;;;8.68;100.00;96513.72;7400498;19;20402;-89
2023/08/11 00:40:03;;;;;;;6.97;5.10;;;;;;;9.36;100.00;96622.19;7396410;19;20389;-92
2023/08/11 00:42:33;;;;;;;4.13;3.83;;;;;;;8.87;100.00;96516.81;7400280;19;20400;-91
2023/08/11 00:45:02;;;;;;;4.87;4.47;;;;;;;9.06;100.00;96547.38;7397019;19;20401;-90
2023/08/11 00:47:32;;;;;;;5.53;5.03;;;;;;;9.52;100.00;96614.59;7397793;19;20373;-90
2023/08/11 00:50:03;;;;;;;5.80;4.63;;;;;;;7.88;100.00;96370.88;7395809;19;20377;-90
2023/08/11 00:52:30;;;;;;;5.60;4.53;;;;;;;8.32;100.00;96449.94;7396285;19;20403;-90
2023/08/11 00:55:01;;;;;;;6.83;6.13;;;;;;;8.57;100.00;96491.38;7402307;19;20388;-91
2023/08/11 00:57:28;;;;;;;4.23;3.83;;;;;;;7.68;100.00;96348.53;7404038;19;20373;-92
2023/08/11 00:59:56;;;;;;;4.90;4.23;;;;;;;9.81;100.00;96656.19;7400638;19;20372;-92
2023/08/11 01:02:23;;;;;;;5.10;4.70;;;;;;;9.71;100.00;96644.06;7399005;19;20389;-92
2023/08/11 01:04:53;;;;;;;8.10;4.90;;;;;;;7.84;100.00;96358.63;7405093;19;20381;-92
2023/08/11 01:07:31;;;;;;;5.23;4.73;;;;;;;10.10;100.00;96705.69;7404160;19;20381;-92
2023/08/11 01:10:08;;;;;;;9.27;4.53;;;;;;;8.73;100.00;96553.09;7401894;19;20376;-92
2023/08/11 01:13:21;;;;;;;4.80;4.20;;;;;;;7.38;100.00;96365.94;7400011;19;20758;-92
2023/08/11 01:16:06;;;;;;;4.43;4.13;;;;;;;9.92;100.00;96707.59;7396285;19;20385;-92
2023/08/11 01:18:36;;;;;;;6.03;5.37;;;;;;;8.88;100.00;96610.66;7398335;19;20914;-92
2023/08/11 01:21:11;;;;;;;5.83;5.27;;;;;;;7.19;100.00;96351.47;7401455;19;20408;-92
2023/08/11 01:23:41;;;;;;;5.90;4.07;;;;;;;8.13;100.00;96443.06;7400902;19;20491;-93
2023/08/11 01:26:11;;;;;;;5.20;4.80;;;;;;;8.53;100.00;96504.38;7402703;19;20746;-93
2023/08/11 01:28:40;;;;;;;7.47;4.57;;;;;;;9.60;100.00;96674.50;7397588;19;20392;-92
2023/08/11 01:31:08;;;;;;;4.90;4.00;;;;;;;9.79;100.00;96667.06;7400752;19;20379;-92
2023/08/11 01:33:35;;;;;;;8.80;5.33;;;;;;;9.23;100.00;96609.94;7407269;19;20475;-92
2023/08/11 01:36:05;;;;;;;4.20;3.90;;;;;;;7.37;100.00;96397.81;7409670;19;20385;-91
2023/08/11 01:38:32;;;;;;;5.10;4.30;;;;;;;7.99;100.00;96495.09;7416860;19;20373;-92
2023/08/11 01:41:02;;;;;;;4.10;3.70;;;;;;;8.91;100.00;96642.75;7407930;19;20417;-92
2023/08/11 01:43:29;;;;;;;4.57;4.20;;;;;;;9.64;100.00;96730.88;7401226;19;20428;-93
2023/08/11 01:45:58;;;;;;;5.93;4.47;;;;;;;8.58;100.00;96558.81;7400418;19;20743;-92
2023/08/11 01:48:26;;;;;;;3.83;3.40;;;;;;;8.56;100.00;96543.31;7399906;19;20380;-92
2023/08/11 01:50:55;;;;;;;6.97;4.73;;;;;;;8.34;100.00;96563.69;7396330;19;20440;-92
2023/08/11 01:53:22;;;;;;;6.50;3.63;;;;;;;8.72;100.00;96564.72;7394549;19;20411;-92
2023/08/11 01:55:50;;;;;;;6.40;3.40;;;;;;;9.57;100.00;96707.56;7395721;19;20388;-92
2023/08/11 01:58:17;;;;;;;5.10;3.37;;;;;;;8.58;100.00;96574.63;7401619;19;20417;-92
2023/08/11 02:00:44;;;;;;;6.20;4.43;;;;;;;7.88;100.00;96478.81;7399289;19;20413;-92
2023/08/11 02:03:12;;;;;;;5.13;4.20;;;;;;;8.79;100.00;96646.75;7399446;19;20417;-92
2023/08/11 02:05:40;;;;;;;3.77;3.03;;;;;;;7.86;100.00;96543.34;7395704;19;20425;-91
2023/08/11 02:08:07;;;;;;;3.70;3.40;;;;;;;8.79;100.00;96667.09;7397152;19;20368;-90
2023/08/11 02:10:34;;;;;;;8.93;4.27;;;;;;;8.71;100.00;96663.34;7395447;19;20381;-91
2023/08/11 02:13:02;;;;;;;5.07;4.00;;;;;;;8.53;100.00;96611.66;7396383;19;20401;-92
2023/08/11 02:15:30;;;;;;;5.17;4.67;;;;;;;8.34;100.00;96576.84;7396484;19;20920;-92
2023/08/11 02:17:57;;;;;;;5.20;4.80;;;;;;;7.97;100.00;96516.44;7408747;19;20423;-92
2023/08/11 02:20:24;;;;;;;5.00;4.60;;;;;;;8.43;100.00;96581.09;7427201;19;20392;-92
2023/08/11 02:22:52;;;;;;;6.77;4.50;;;;;;;7.82;100.00;96506.31;7403313;19;20421;-92
2023/08/11 02:25:20;;;;;;;9.27;5.23;;;;;;;9.14;100.00;96724.13;7402719;19;20377;-92
2023/08/11 02:27:47;;;;;;;4.63;4.23;;;;;;;6.96;100.00;96382.31;7400643;19;20385;-92
2023/08/11 02:30:15;;;;;;;6.30;3.83;;;;;;;9.24;100.00;96719.66;7401251;19;20384;-91
2023/08/11 02:32:50;;;;;;;5.53;4.97;;;;;;;8.70;100.00;96667.06;7417259;19;20464;-91
2023/08/11 02:35:22;;;;;;;10.33;4.73;;;;;;;7.07;100.00;96381.72;7403232;19;20356;-92
2023/08/11 02:37:58;;;;;;;4.60;3.90;;;;;;;9.38;100.00;96729.00;7415191;19;20404;-92
2023/08/11 02:40:36;;;;;;;4.70;3.87;;;;;;;8.37;100.00;96578.91;7401167;19;20393;-92
2023/08/11 02:43:07;;;;;;;4.53;4.13;;;;;;;7.55;100.00;96440.72;7397218;19;20445;-92
2023/08/11 02:45:35;;;;;;;4.97;4.40;;;;;;;7.98;100.00;96502.19;7395513;19;20444;-92
2023/08/11 02:48:03;;;;;;;4.77;4.30;;;;;;;8.66;100.00;96625.78;7396198;19;20697;-92
2023/08/11 02:50:30;;;;;;;4.70;3.90;;;;;;;9.30;100.00;96740.28;7395110;19;20391;-91
2023/08/11 02:52:57;;;;;;;4.90;3.27;;;;;;;8.10;100.00;96564.06;7392702;19;20424;-91
2023/08/11 02:55:25;;;;;;;5.20;3.60;;;;;;;8.26;100.00;96592.31;7401458;19;20391;-91
2023/08/11 02:57:52;;;;;;;5.10;3.93;;;;;;;7.65;100.00;96514.94;7403750;19;20396;-92
2023/08/11 03:00:19;;;;;;;4.90;3.70;;;;;;;8.59;100.00;96640.22;7402969;19;20388;-92
2023/08/11 03:02:46;;;;;;;6.13;4.07;;;;;;;7.70;100.00;96491.09;7403244;19;20487;-92
2023/08/11 03:05:15;;;;;;;3.90;3.60;;;;;;;8.95;100.00;96672.69;7402576;19;20386;-92
2023/08/11 03:07:45;;;;;;;4.80;3.10;;;;;;;8.03;100.00;96535.53;7404867;19;20805;-92
2023/08/11 03:10:12;;;;;;;3.80;3.07;;;;;;;7.92;100.00;96560.56;7402835;19;20389;-92
2023/08/11 03:12:41;;;;;;;6.20;3.93;;;;;;;7.90;100.00;96568.78;7401256;19;20396;-92
2023/08/11 03:15:09;;;;;;;4.40;3.60;;;;;;;7.48;100.00;96516.66;7403232;19;20380;-92
2023/08/11 03:17:37;;;;;;;5.80;3.57;;;;;;;6.31;100.00;96346.81;7403984;19;20392;-91
2023/08/11 03:20:11;;;;;;;3.77;3.47;;;;;;;7.85;100.00;96604.97;7402026;19;20392;-92
2023/08/11 03:22:40;;;;;;;7.77;3.83;;;;;;;7.36;100.00;96560.09;7405946;19;20526;-92
2023/08/11 03:25:09;;;;;;;5.43;3.40;;;;;;;8.28;100.00;96690.28;7405636;19;20393;-92
2023/08/11 03:27:38;;;;;;;4.13;3.57;;;;;;;8.41;100.00;96685.22;7406950;19;20373;-91
2023/08/11 03:30:09;;;;;;;3.57;3.30;;;;;;;7.79;100.00;96569.34;7406773;19;20460;-91
2023/08/11 03:32:40;;;;;;;3.40;3.13;;;;;;;7.99;100.00;96601.16;7402160;19;20944;-92
2023/08/11 03:35:09;;;;;;;5.40;3.33;;;;;;;8.29;100.00;96612.00;7401782;19;20392;-91
2023/08/11 03:37:37;;;;;;;6.60;4.00;;;;;;;7.48;100.00;96506.16;7400454;19;20376;-91
2023/08/11 03:40:12;;;;;;;10.67;4.10;;;;;;;7.74;100.00;96566.81;7397044;19;20377;-91
2023/08/11 03:42:44;;;;;;;8.00;3.70;;;;;;;7.76;100.00;96585.72;7399902;19;20412;-92
2023/08/11 03:45:13;;;;;;;7.23;3.33;;;;;;;7.47;100.00;96620.34;7400852;19;20395;-91
2023/08/11 03:47:42;;;;;;;6.07;3.30;;;;;;;6.70;100.00;96460.97;7399630;19;20385;-92
2023/08/11 03:50:15;;;;;;;6.70;3.60;;;;;;;7.33;100.00;96541.50;7398588;19;20385;-91
2023/08/11 03:52:42;;;;;;;6.00;3.33;;;;;;;6.79;100.00;96470.44;7398187;19;20536;-91
2023/08/11 03:55:12;;;;;;;4.37;3.20;;;;;;;7.45;100.00;96548.84;7400300;19;20377;-92
2023/08/11 03:57:39;;;;;;;4.63;3.47;;;;;;;7.42;100.00;96547.59;7399134;19;20901;-91
2023/08/11 04:00:16;;;;;;;4.03;3.07;;;;;;;7.08;100.00;96506.06;7396946;19;20395;-91
2023/08/11 04:02:50;;;;;;;3.90;3.50;;;;;;;7.84;100.00;96632.38;7402039;19;20425;-91
2023/08/11 04:05:18;;;;;;;3.53;3.23;;;;;;;7.73;100.00;96608.16;7400061;19;20416;-91
2023/08/11 04:07:45;;;;;;;4.73;3.27;;;;;;;8.23;100.00;96669.31;7396363;19;20372;-91
2023/08/11 04:10:12;;;;;;;4.80;3.87;;;;;;;7.66;100.00;96566.47;7398589;19;20506;-92
2023/08/11 04:12:39;;;;;;;7.20;3.40;;;;;;;7.65;100.00;96608.88;7398877;19;20417;-91
2023/08/11 04:15:07;;;;;;;4.50;4.10;;;;;;;7.08;100.00;96509.47;7401514;19;20382;-91
2023/08/11 04:17:34;;;;;;;4.60;4.20;;;;;;;7.54;100.00;96578.63;7398836;19;20456;-92
2023/08/11 04:20:11;;;;;;;4.17;3.50;;;;;;;6.77;100.00;96463.94;7398343;19;20385;-91
2023/08/11 04:22:39;;;;;;;3.93;3.23;;;;;;;7.38;100.00;96555.31;7397935;19;20406;-91
2023/08/11 04:25:09;;;;;;;5.20;2.97;;;;;;;7.76;100.00;96641.00;7399704;19;20381;-91
2023/08/11 04:27:39;;;;;;;8.50;3.80;;;;;;;8.08;100.00;96669.69;7406554;19;20401;-91
2023/08/11 04:30:08;;;;;;;5.20;3.67;;;;;;;8.38;100.00;96704.28;7401823;19;20398;-92
2023/08/11 04:32:37;;;;;;;3.77;3.20;;;;;;;7.93;100.00;96651.63;7397753;19;20400;-93
2023/08/11 04:35:08;;;;;;;3.93;3.63;;;;;;;7.68;100.00;96595.13;7398406;19;20884;-93
2023/08/11 04:37:38;;;;;;;6.83;3.40;;;;;;;6.58;100.00;96395.03;7400808;19;20372;-92
2023/08/11 04:40:06;;;;;;;5.50;3.93;;;;;;;8.38;100.00;96696.38;7417329;19;20369;-93
2023/08/11 04:42:34;;;;;;;3.43;3.13;;;;;;;7.16;100.00;96517.72;7429278;19;20420;-93
2023/08/11 04:45:01;;;;;;;6.30;3.87;;;;;;;8.08;100.00;96653.09;7429686;19;20389;-93
2023/08/11 04:47:29;;;;;;;6.87;4.30;;;;;;;7.85;100.00;96607.59;7428634;19;20396;-93
2023/08/11 04:49:57;;;;;;;6.77;3.90;;;;;;;7.68;100.00;96581.97;7406107;19;20656;-92
2023/08/11 04:52:24;;;;;;;6.40;4.33;;;;;;;7.03;100.00;96512.22;7400397;19;20405;-92
2023/08/11 04:54:51;;;;;;;5.63;3.97;;;;;;;7.22;100.00;96529.69;7405137;19;20381;-92
2023/08/11 04:57:18;;;;;;;6.13;4.13;;;;;;;6.79;100.00;96448.66;7401604;19;20377;-92
2023/08/11 04:59:47;;;;;;;6.33;5.00;;;;;;;7.02;100.00;96475.72;7403639;19;20387;-92
2023/08/11 05:02:14;;;;;;;8.00;5.00;;;;;;;8.46;100.00;96682.47;7413376;19;20401;-92
2023/08/11 05:04:42;;;;;;;9.50;5.50;;;;;;;7.64;100.00;96562.59;7432237;19;20413;-92
2023/08/11 05:07:09;;;;;;;7.17;4.57;;;;;;;7.34;100.00;96516.75;7429261;19;20381;-92
2023/08/11 05:09:37;;;;;;;7.77;4.27;;;;;;;8.79;100.00;96722.44;7431603;19;20400;-93
2023/08/11 05:12:04;;;;;;;8.80;4.30;;;;;;;8.45;100.00;96660.63;7428515;19;20389;-92
2023/08/11 05:14:32;;;;;;;6.53;4.70;;;;;;;7.97;100.00;96587.53;7428269;19;20454;-93
2023/08/11 05:16:59;;;;;;;6.10;5.60;;;;;;;8.08;100.00;96598.59;7428696;19;20381;-91
2023/08/11 05:19:31;;;;;;;4.90;4.40;;;;;;;8.29;100.00;96610.16;7428843;19;20461;-91
2023/08/11 05:21:58;;;;;;;6.13;4.70;;;;;;;8.68;100.00;96634.16;7422950;19;20400;-92
2023/08/11 05:24:25;;;;;;;6.10;4.40;;;;;;;9.45;100.00;96734.56;7396355;19;20460;-92
2023/08/11 05:26:52;;;;;;;6.00;4.70;;;;;;;9.43;100.00;96731.47;7402388;19;20384;-92
2023/08/11 05:29:19;;;;;;;5.10;4.60;;;;;;;9.21;100.00;96696.50;7405781;19;20380;-93
2023/08/11 05:31:46;;;;;;;7.57;4.67;;;;;;;9.46;100.00;96736.13;7402108;19;20905;-92
2023/08/11 05:34:14;;;;;;;5.37;4.73;;;;;;;9.27;100.00;96677.59;7393386;19;20503;-92
2023/08/11 05:36:41;;;;;;;5.97;4.80;;;;;;;9.76;100.00;96786.50;7406943;19;20384;-91
2023/08/11 05:39:12;;;;;;;11.27;5.27;;;;;;;8.63;100.00;96607.97;7400447;19;20406;-91
2023/08/11 05:41:41;;;;;;;6.20;5.70;;;;;;;9.16;100.00;96656.00;7399894;19;20455;-92
2023/08/11 05:44:08;;;;;;;6.20;5.60;;;;;;;8.91;100.00;96563.66;7398531;19;20437;-92
2023/08/11 05:46:35;;;;;;;7.60;4.57;;;;;;;9.26;100.00;96562.59;7400467;19;20380;-92
2023/08/11 05:49:02;;;;;;;5.60;5.10;;;;;;;9.58;100.00;96600.13;7400359;19;20405;-92
2023/08/11 05:51:30;;;;;;;6.73;5.30;;;;;;;10.72;100.00;96723.78;7394967;19;20904;-92
2023/08/11 05:53:57;;;;;;;5.90;5.40;;;;;;;10.36;100.00;96627.16;7394231;19;20507;-91
2023/08/11 05:56:24;;;;;;;5.00;4.60;;;;;;;10.92;100.00;96670.16;7394428;19;20404;-92
2023/08/11 05:58:51;;;;;;;6.50;5.50;;;;;;;11.49;100.00;96730.56;7396126;19;20384;-92
2023/08/11 06:01:18;;;;;;;6.07;5.47;;;;;;;11.28;100.00;96639.75;7397219;19;20449;-92
2023/08/11 06:03:46;;;;;;;6.57;5.93;;;;;;;10.20;100.00;96489.47;7401825;19;20461;-92
2023/08/11 06:06:18;;;;;;;5.40;5.00;;;;;;;10.59;100.00;96487.56;7398331;19;20397;-91
2023/08/11 06:08:49;;;;;;;5.13;4.83;;;;;;;10.86;100.00;96516.16;7398550;19;20399;-92
2023/08/11 06:11:16;;;;;;;5.53;5.03;;;;;;;12.08;100.00;96675.56;7402373;19;20400;-92
2023/08/11 06:13:43;;;;;;;5.90;5.40;;;;;;;11.82;100.00;96620.16;7398510;19;20420;-92
2023/08/11 06:16:10;;;;;;;6.03;5.53;;;;;;;11.97;100.00;96632.00;7398657;19;20385;-92
2023/08/11 06:18:38;;;;;;;6.53;6.03;;;;;;;11.34;100.00;96479.63;7393557;19;20388;-92
2023/08/11 06:21:05;;;;;;;6.67;5.80;;;;;;;12.64;100.00;96636.09;7396481;19;20392;-91
2023/08/11 06:23:33;;;;;;;7.57;6.87;;;;;;;13.29;100.00;96764.41;7394823;19;20456;-92
2023/08/11 06:26:00;;;;;;;6.90;6.30;;;;;;;12.77;100.00;96670.59;7398327;19;20404;-92
2023/08/11 06:28:27;;;;;;;8.90;6.10;;;;;;;12.94;100.00;96668.47;7395596;19;20483;-92
2023/08/11 06:30:54;;;;;;;7.03;6.33;;;;;;;12.44;100.00;96538.84;7396870;19;20380;-92
2023/08/11 06:33:25;;;;;;;5.47;4.97;;;;;;;13.25;100.00;96651.25;7401378;19;20413;-92
2023/08/11 06:35:52;;;;;;;6.23;5.63;;;;;;;13.91;100.00;96693.34;7397455;19;20406;-92
2023/08/11 06:38:20;;;;;;;6.10;4.97;;;;;;;13.70;100.00;96602.38;7395016;19;20392;-92
2023/08/11 06:40:47;;;;;;;5.57;5.07;;;;;;;13.48;100.00;96596.50;7396646;19;20377;-92
2023/08/11 06:43:14;;;;;;;4.67;4.37;;;;;;;13.23;100.00;96539.28;7397871;19;20408;-92
2023/08/11 06:45:44;;;;;;;5.10;4.70;;;;;;;14.47;100.00;96730.56;7403211;19;20393;-92
2023/08/11 06:48:12;;;;;;;6.33;5.13;;;;;;;14.90;100.00;96755.59;7418681;19;20373;-92
2023/08/11 06:50:39;;;;;;;5.10;4.70;;;;;;;13.95;100.00;96579.91;7406419;19;20455;-92
2023/08/11 06:53:08;;;;;;;6.60;4.50;;;;;;;13.58;100.00;96518.19;7396170;19;20958;-92
2023/08/11 06:55:36;;;;;;;4.57;4.23;;;;;;;15.22;100.00;96842.38;7396518;19;20383;-92
2023/08/11 06:58:03;;;;;;;5.13;4.73;;;;;;;14.17;100.00;96621.88;7404237;19;20467;-92
2023/08/11 07:00:31;;;;;;;4.80;3.63;;;;;;;15.25;100.00;96695.19;7403307;19;20404;-92
2023/08/11 07:02:58;;;;;;;4.83;4.43;;;;;;;15.17;100.00;96698.03;7394919;19;20423;-92
2023/08/11 07:05:25;;;;;;;8.20;4.93;;;;;;;15.18;100.00;96639.06;7392715;19;20393;-92
2023/08/11 07:07:52;;;;;;;4.60;4.20;;;;;;;15.81;100.00;96737.53;7392426;19;20480;-92
2023/08/11 07:10:19;;;;;;;4.63;4.30;;;;;;;15.13;100.00;96639.34;7392726;19;20393;-92
2023/08/11 07:12:47;;;;;;;4.23;3.83;;;;;;;14.75;100.00;96550.28;7391417;19;20412;-93
2023/08/11 07:15:14;;;;;;;4.93;4.53;;;;;;;16.93;100.00;96808.69;7391359;19;20912;-92
2023/08/11 07:17:41;;;;;;;4.70;4.17;;;;;;;15.75;100.00;96592.25;7393205;19;20893;-92
2023/08/11 07:20:08;;;;;;;5.70;4.60;;;;;;;16.24;100.00;96683.09;7393262;19;20409;-92
2023/08/11 07:22:35;;;;;;;5.93;4.90;;;;;;;16.86;100.00;96770.41;7391759;19;20405;-92
2023/08/11 07:25:03;;;;;;;7.07;4.13;;;;;;;16.90;100.00;96739.19;7393543;19;20402;-92
2023/08/11 07:27:30;;;;;;;5.40;4.70;;;;;;;17.57;100.00;96822.34;7391967;19;20376;-92
2023/08/11 07:29:57;;;;;;;4.40;4.00;;;;;;;17.64;100.00;96804.50;7391670;19;20382;-92
2023/08/11 07:32:24;;;;;;;8.30;5.83;;;;;;;17.86;100.00;96805.59;7390547;19;20940;-92
2023/08/11 07:34:51;;;;;;;5.23;4.37;;;;;;;17.14;100.00;96650.63;7392150;19;20381;-92
2023/08/11 07:37:18;;;;;;;6.17;4.23;;;;;;;18.61;100.00;96809.19;7392752;19;20384;-92
2023/08/11 07:39:45;;;;;;;5.83;4.57;;;;;;;17.71;100.00;96764.50;7392076;19;20482;-91
2023/08/11 07:42:13;;;;;;;4.50;3.97;;;;;;;17.82;100.00;96734.44;7393750;19;20729;-92
2023/08/11 07:44:40;;;;;;;3.57;3.33;;;;;;;18.06;100.00;96747.38;7397817;19;20381;-93
2023/08/11 07:47:07;;;;;;;5.47;4.63;;;;;;;17.17;100.00;96617.84;7399024;19;20548;-92
2023/08/11 07:49:35;;;;;;;5.43;4.17;;;;;;;18.55;100.00;96816.00;7398872;19;20401;-92
2023/08/11 07:52:03;;;;;;;4.77;4.37;;;;;;;18.48;100.00;96778.44;7398959;19;20498;-92
2023/08/11 07:54:30;;;;;;;6.13;4.10;;;;;;;18.40;100.00;96755.38;7403381;19;20400;-91
2023/08/11 07:56:57;;;;;;;4.30;3.77;;;;;;;19.05;100.00;96838.00;7418083;19;20381;-92
2023/08/11 07:59:24;;;;;;;3.90;3.60;;;;;;;18.24;100.00;96645.84;7429729;19;20392;-92
2023/08/11 08:01:52;;;;;;;4.40;4.03;;;;;;;18.19;100.00;96640.84;7420064;19;20392;-93
2023/08/11 08:04:19;;;;;;;4.17;3.80;;;;;;;18.97;100.00;96748.72;7402773;19;20404;-92
2023/08/11 08:06:46;;;;;;;3.80;3.33;;;;;;;18.54;100.00;96665.25;7405720;19;20389;-91
2023/08/11 08:09:14;;;;;;;4.23;3.50;;;;;;;19.12;100.00;96698.69;7400658;19;20379;-92
2023/08/11 08:11:43;;;;;;;5.53;3.80;;;;;;;20.14;100.00;96794.34;7399967;19;20912;-91
2023/08/11 08:14:12;;;;;;;3.47;3.27;;;;;;;19.02;100.00;96659.16;7399899;19;20412;-92
2023/08/11 08:16:44;;;;;;;3.80;3.50;;;;;;;19.31;100.00;96729.81;7404039;19;20396;-92
2023/08/11 08:19:14;;;;;;;4.20;3.90;;;;;;;19.46;100.00;96814.59;7403206;19;20381;-92
2023/08/11 08:21:42;;;;;;;4.37;3.97;;;;;;;19.76;100.00;96801.03;7397187;19;20368;-92
2023/08/11 08:24:09;;;;;;;4.07;3.77;;;;;;;19.98;100.00;96791.97;7400740;19;20801;-92
2023/08/11 08:26:36;;;;;;;4.23;3.83;;;;;;;19.70;100.00;96759.59;7401110;19;20396;-92
2023/08/11 08:29:04;;;;;;;4.10;3.53;;;;;;;20.45;100.00;96809.09;7402095;19;20385;-92
2023/08/11 08:31:32;;;;;;;4.40;3.37;;;;;;;20.05;100.00;96716.84;7398882;19;20397;-92
2023/08/11 08:33:59;;;;;;;4.30;4.00;;;;;;;20.26;100.00;96736.84;7396571;19;20500;-92
2023/08/11 08:36:29;;;;;;;3.87;3.57;;;;;;;19.25;100.00;96654.34;7403204;19;20377;-92
2023/08/11 08:38:56;;;;;;;5.43;3.80;;;;;;;20.59;100.00;96849.44;7398131;19;20385;-91
2023/08/11 08:41:28;;;;;;;5.30;3.80;;;;;;;20.85;100.00;96826.88;7398000;19;20402;-92
2023/08/11 08:43:56;;;;;;;4.07;3.40;;;;;;;20.60;100.00;96765.00;7401693;19;20426;-92
2023/08/11 08:46:30;;;;;;;3.67;3.37;;;;;;;20.78;100.00;96719.31;7397695;19;20388;-92
2023/08/11 08:49:11;;;;;;;3.37;3.10;;;;;;;21.43;100.00;96819.66;7400840;19;20909;-91
2023/08/11 08:51:40;;;;;;;5.33;2.83;;;;;;;21.08;97.75;96761.97;7415079;19;20381;-92
2023/08/11 08:54:10;;;;;;;3.50;2.90;;;;;;;20.34;95.24;96650.53;7409395;19;20444;-92
2023/08/11 08:56:39;;;;;;;3.40;3.20;;;;;;;21.72;95.54;96823.84;7417984;19;20377;-92
2023/08/11 08:59:07;;;;;;;2.90;2.70;;;;;;;20.96;95.54;96786.53;7423276;19;20380;-92
2023/08/11 09:01:36;;;;;;;5.83;3.20;;;;;;;22.31;96.37;96888.06;7415509;19;20381;-92
2023/08/11 09:04:08;;;;;;;3.00;2.80;;;;;;;20.67;93.72;96662.09;7398667;19;20476;-92
2023/08/11 09:06:38;;;;;;;3.63;3.20;;;;;;;21.43;95.28;96720.88;7398227;19;20381;-92
2023/08/11 09:09:08;;;;;;;3.60;3.40;;;;;;;20.64;90.72;96642.16;7399022;19;20372;-91
2023/08/11 09:11:38;;;;;;;3.07;2.70;;;;;;;21.34;93.24;96717.78;7400579;19;20414;-91
2023/08/11 09:14:06;;;;;;;3.27;2.97;;;;;;;21.86;90.27;96766.53;7397180;19;20413;-92
2023/08/11 09:16:35;;;;;;;5.10;3.00;;;;;;;21.92;89.55;96764.97;7402685;19;20435;-92
2023/08/11 09:19:04;;;;;;;3.43;3.13;;;;;;;22.13;88.73;96764.16;7399024;19;20385;-92
2023/08/11 09:21:31;;;;;;;2.70;2.50;;;;;;;22.49;83.44;96853.72;7399143;19;20381;-92
2023/08/11 09:23:59;;;;;;;3.37;3.07;;;;;;;21.96;86.24;96814.19;7395073;19;20767;-92
2023/08/11 09:26:27;;;;;;;3.80;3.23;;;;;;;22.00;88.93;96779.94;7396861;19;20393;-92
2023/08/11 09:28:54;;;;;;;4.50;2.73;;;;;;;22.35;88.47;96779.09;7395614;19;20373;-92
2023/08/11 09:31:22;;;;;;;3.77;3.47;;;;;;;22.17;82.38;96785.69;7396143;19;20953;-92
2023/08/11 09:33:51;;;;;;;4.43;3.63;;;;;;;21.49;81.74;96697.78;7393599;19;20413;-92
2023/08/11 09:36:19;;;;;;;2.80;2.60;;;;;;;20.92;82.04;96579.53;7395545;19;20388;-92
2023/08/11 09:38:48;;;;;;;2.70;2.23;;;;;;;22.41;77.64;96866.44;7394281;19;20396;-92
2023/08/11 09:41:16;;;;;;;3.07;2.87;;;;;;;21.92;78.89;96808.06;7394149;19;20385;-93
2023/08/11 09:43:50;;;;;;;2.80;2.60;;;;;;;21.93;80.14;96814.22;7394616;19;20409;-93
2023/08/11 09:46:17;;;;;;;3.37;3.17;;;;;;;22.14;83.77;96811.47;7399063;19;20404;-92
2023/08/11 09:48:54;;;;;;;2.87;2.67;;;;;;;22.68;83.39;96779.69;7396922;19;20896;-92
2023/08/11 09:51:22;;;;;;;6.40;3.67;;;;;;;22.28;78.49;96729.84;7394717;19;20399;-93
2023/08/11 09:53:51;;;;;;;4.60;3.27;;;;;;;21.77;80.92;96720.41;7395514;19;20547;-92
2023/08/11 09:56:20;;;;;;;2.77;2.57;;;;;;;22.71;79.33;96800.47;7400688;19;20436;-90
2023/08/11 09:58:52;;;;;;;2.73;2.53;;;;;;;22.53;78.61;96792.47;7397571;19;20399;-91
2023/08/11 10:01:20;;;;;;;2.60;2.33;;;;;;;22.33;77.12;96715.97;7396844;19;20389;-92
2023/08/11 10:03:48;;;;;;;2.60;2.40;;;;;;;22.73;78.64;96790.06;7396919;19;20484;-92
2023/08/11 10:06:21;;;;;;;3.53;2.30;;;;;;;22.80;75.67;96789.25;7396260;19;20405;-92
2023/08/11 10:08:50;;;;;;;3.53;3.23;;;;;;;22.32;77.02;96719.81;7393955;19;20739;-92
2023/08/11 10:11:19;;;;;;;2.50;2.30;;;;;;;23.15;75.69;96820.66;7396160;19;20385;-92
2023/08/11 10:13:48;;;;;;;5.40;2.73;;;;;;;22.86;80.39;96750.72;7394179;19;20415;-92
2023/08/11 10:16:15;;;;;;;2.97;2.37;;;;;;;22.63;74.19;96747.75;7395037;19;20407;-91
2023/08/11 10:18:43;;;;;;;8.60;2.30;;;;;;;22.96;77.38;96762.56;7396805;19;20396;-91
2023/08/11 10:21:12;;;;;;;3.13;2.53;;;;;;;23.10;77.70;96761.69;7394409;19;20432;-91
2023/08/11 10:23:40;;;;;;;4.07;2.17;;;;;;;23.61;74.90;96808.72;7393954;19;20392;-90
2023/08/11 10:26:08;;;;;;;3.10;2.90;;;;;;;23.43;72.41;96798.84;7395026;19;20397;-91
2023/08/11 10:28:35;;;;;;;2.77;2.57;;;;;;;22.81;72.53;96750.31;7395402;19;20387;-92
2023/08/11 10:31:04;;;;;;;2.90;2.57;;;;;;;23.06;71.74;96804.13;7395552;19;20472;-91
2023/08/11 10:33:32;;;;;;;2.80;2.60;;;;;;;23.61;71.94;96860.03;7394922;19;20416;-92
2023/08/11 10:36:00;;;;;;;3.23;2.93;;;;;;;22.71;70.40;96706.09;7396239;19;20395;-93
2023/08/11 10:38:30;;;;;;;2.27;2.03;;;;;;;23.51;70.46;96819.22;7396394;19;20388;-93
2023/08/11 10:41:00;;;;;;;2.93;2.73;;;;;;;23.52;72.15;96798.38;7400473;19;20384;-93
2023/08/11 10:43:30;;;;;;;2.50;2.00;;;;;;;23.85;71.71;96813.91;7395939;19;20412;-92
2023/08/11 10:46:16;;;;;;;2.70;2.50;;;;;;;23.53;72.85;96737.81;7400076;19;20916;-92
2023/08/11 10:48:43;;;;;;;3.97;3.60;;;;;;;24.01;73.08;96759.31;7400354;19;20368;-92
2023/08/11 10:51:37;;;;;;;3.00;2.80;;;;;;;24.81;70.77;96855.31;7399537;19;20461;-92
2023/08/11 10:54:09;;;;;;;2.90;2.60;;;;;;;24.78;70.61;96848.00;7399610;19;20405;-91
2023/08/11 10:56:41;;;;;;;2.83;2.63;;;;;;;23.45;71.20;96728.25;7400668;19;20376;-91
2023/08/11 10:59:17;;;;;;;4.10;2.97;;;;;;;24.60;73.25;96859.06;7398775;19;20387;-91
2023/08/11 11:01:48;;;;;;;4.90;4.50;;;;;;;23.76;71.49;96748.00;7398519;19;20376;-91
2023/08/11 11:04:16;;;;;;;3.87;2.70;;;;;;;23.74;73.11;96721.41;7400119;19;20480;-91
2023/08/11 11:06:45;;;;;;;3.00;2.70;;;;;;;24.98;72.79;96842.75;7400610;19;20944;-91
2023/08/11 11:09:13;;;;;;;2.47;2.23;;;;;;;24.82;71.26;96794.63;7400456;19;20380;-91
2023/08/11 11:11:40;;;;;;;2.57;2.37;;;;;;;24.15;73.58;96794.28;7399553;19;20373;-93
2023/08/11 11:14:09;;;;;;;2.47;2.27;;;;;;;22.89;73.10;96655.53;7399181;19;20440;-92
2023/08/11 11:16:37;;;;;;;2.77;2.53;;;;;;;23.64;71.85;96772.81;7407307;19;20393;-92
2023/08/11 11:19:06;;;;;;;2.93;2.70;;;;;;;24.21;70.37;96739.78;7408239;19;20392;-92
2023/08/11 11:21:34;;;;;;;5.20;2.33;;;;;;;24.91;70.77;96818.47;7405232;19;20415;-92
2023/08/11 11:24:01;;;;;;;3.20;2.60;;;;;;;25.41;73.08;96836.72;7422988;19;20553;-91
2023/08/11 11:26:31;;;;;;;2.63;2.43;;;;;;;24.44;68.72;96685.84;7423354;19;20389;-92
2023/08/11 11:29:00;;;;;;;2.87;2.60;;;;;;;24.82;68.62;96705.34;7427922;19;20406;-91
2023/08/11 11:31:30;;;;;;;4.77;2.70;;;;;;;25.89;69.81;96828.94;7414994;19;20384;-92
2023/08/11 11:33:58;;;;;;;2.93;2.27;;;;;;;25.20;68.58;96700.50;7400578;19;20916;-92
2023/08/11 11:36:25;;;;;;;3.27;3.07;;;;;;;25.30;68.49;96747.53;7410379;19;20432;-93
2023/08/11 11:38:52;;;;;;;3.50;2.80;;;;;;;25.30;67.70;96753.72;7436255;19;20404;-92